Time,TemperatureF,DewpointF,PressureIn,WindDirection,WindDirectionDegrees,WindSpeedMPH,WindSpeedGustMPH,Humidity,HourlyPrecipIn,Conditions,Clouds,dailyrainin,SoftwareType,DateUTC
2013-06-03 00:02:00,67.2,66.0,29.77,North,354,0.0,0.0,97,0.00,,,0.00,weatherlink.com 1.10,2013-06-03 04:02:00,
2013-06-03 00:17:00,67.2,66.0,29.77,North,354,0.0,0.0,96,0.00,,,0.00,weatherlink.com 1.10,2013-06-03 04:17:00,
2013-06-03 00:32:00,67.0,66.0,29.77,North,354,0.0,0.0,96,0.00,,,0.00,weatherlink.com 1.10,2013-06-03 04:32:00,
2013-06-03 00:47:00,66.6,66.0,29.78,North,354,0.0,0.0,96,0.00,,,0.00,weatherlink.com 1.10,2013-06-03 04:47:00,
2013-06-03 01:02:00,66.4,65.0,29.78,North,352,0.0,0.0,96,0.00,,,0.00,weatherlink.com 1.10,2013-06-03 05:02:00,
2013-06-03 01:17:00,66.4,65.0,29.78,North,352,0.0,0.0,96,0.00,,,0.00,weatherlink.com 1.10,2013-06-03 05:17:00,
2013-06-03 01:32:00,66.2,65.0,29.77,North,352,0.0,0.0,97,0.00,,,0.00,weatherlink.com 1.10,2013-06-03 05:32:00,
2013-06-03 01:47:00,66.2,65.0,29.77,North,352,0.0,0.0,97,0.00,,,0.00,weatherlink.com 1.10,2013-06-03 05:47:00,
2013-06-03 02:02:00,66.5,66.0,29.76,North,353,0.0,0.0,97,0.00,,,0.00,weatherlink.com 1.10,2013-06-03 06:02:00,
2013-06-03 02:17:00,66.2,65.0,29.76,North,354,0.0,0.0,97,0.00,,,0.00,weatherlink.com 1.10,2013-06-03 06:17:00,
2013-06-03 02:32:00,65.8,65.0,29.76,North,354,0.0,0.0,97,0.00,,,0.00,weatherlink.com 1.10,2013-06-03 06:32:00,
2013-06-03 02:47:00,65.3,64.0,29.76,North,352,0.0,0.0,96,0.00,,,0.00,weatherlink.com 1.10,2013-06-03 06:47:00,
2013-06-03 03:02:00,64.9,64.0,29.75,North,352,0.0,0.0,97,0.00,,,0.00,weatherlink.com 1.10,2013-06-03 07:02:00,
2013-06-03 03:17:00,64.6,64.0,29.75,North,352,0.0,0.0,97,0.00,,,0.00,weatherlink.com 1.10,2013-06-03 07:17:00,
2013-06-03 03:32:00,64.7,64.0,29.75,North,354,0.0,0.0,97,0.00,,,0.00,weatherlink.com 1.10,2013-06-03 07:32:00,
2013-06-03 03:47:00,64.7,64.0,29.75,North,354,0.0,0.0,97,0.00,,,0.00,weatherlink.com 1.10,2013-06-03 07:47:00,
2013-06-03 04:02:00,64.2,63.0,29.75,North,352,0.0,0.0,97,0.00,,,0.00,weatherlink.com 1.10,2013-06-03 08:02:00,
2013-06-03 04:17:00,63.9,63.0,29.75,North,352,0.0,0.0,97,0.00,,,0.00,weatherlink.com 1.10,2013-06-03 08:17:00,
2013-06-03 04:32:00,63.7,63.0,29.75,North,353,0.0,0.0,97,0.00,,,0.00,weatherlink.com 1.10,2013-06-03 08:32:00,
2013-06-03 04:47:00,63.7,63.0,29.75,North,354,0.0,0.0,97,0.00,,,0.00,weatherlink.com 1.10,2013-06-03 08:47:00,
2013-06-03 05:02:00,63.7,63.0,29.75,North,352,0.0,0.0,97,0.00,,,0.00,weatherlink.com 1.10,2013-06-03 09:02:00,
2013-06-03 05:17:00,63.8,63.0,29.76,North,352,0.0,0.0,97,0.00,,,0.00,weatherlink.com 1.10,2013-06-03 09:17:00,
2013-06-03 05:32:00,63.7,63.0,29.76,North,352,0.0,0.0,97,0.00,,,0.00,weatherlink.com 1.10,2013-06-03 09:32:00,
2013-06-03 05:47:00,63.8,63.0,29.77,North,352,0.0,0.0,97,0.00,,,0.00,weatherlink.com 1.10,2013-06-03 09:47:00,
2013-06-03 06:02:00,63.7,63.0,29.78,North,352,0.0,0.0,97,0.00,,,0.00,weatherlink.com 1.10,2013-06-03 10:02:00,
2013-06-03 06:17:00,63.9,63.0,29.79,North,352,0.0,0.0,97,0.00,,,0.00,weatherlink.com 1.10,2013-06-03 10:17:00,
2013-06-03 06:32:00,64.1,63.0,29.80,North,352,0.0,0.0,97,0.00,,,0.00,weatherlink.com 1.10,2013-06-03 10:32:00,
2013-06-03 06:47:00,64.2,63.0,29.80,North,352,0.0,0.0,97,0.00,,,0.00,weatherlink.com 1.10,2013-06-03 10:47:00,
2013-06-03 07:02:00,64.3,64.0,29.80,North,353,0.0,0.0,97,0.01,,,0.01,weatherlink.com 1.10,2013-06-03 11:02:00,
2013-06-03 07:17:00,64.3,64.0,29.80,SSE,155,0.0,0.0,97,0.02,,,0.02,weatherlink.com 1.10,2013-06-03 11:17:00,
2013-06-03 07:32:00,64.5,64.0,29.80,SSW,203,0.0,0.0,97,0.03,,,0.03,weatherlink.com 1.10,2013-06-03 11:32:00,
2013-06-03 07:47:00,64.5,64.0,29.80,SE,136,0.0,0.0,97,0.04,,,0.04,weatherlink.com 1.10,2013-06-03 11:47:00,
2013-06-03 08:02:00,64.5,64.0,29.80,SSW,203,0.0,0.0,97,0.05,,,0.06,weatherlink.com 1.10,2013-06-03 12:02:00,
2013-06-03 08:17:00,64.6,64.0,29.79,SW,233,0.0,0.0,97,0.04,,,0.06,weatherlink.com 1.10,2013-06-03 12:17:00,
2013-06-03 08:32:00,64.8,64.0,29.80,SSW,200,0.0,0.0,97,0.03,,,0.06,weatherlink.com 1.10,2013-06-03 12:32:00,
2013-06-03 08:47:00,65.3,65.0,29.80,SSE,165,0.0,0.0,97,0.03,,,0.07,weatherlink.com 1.10,2013-06-03 12:47:00,
2013-06-03 09:02:00,65.5,65.0,29.80,SSE,162,0.0,0.0,97,0.01,,,0.07,weatherlink.com 1.10,2013-06-03 13:02:00,
2013-06-03 09:17:00,65.7,65.0,29.80,WSW,238,0.0,0.0,97,0.01,,,0.07,weatherlink.com 1.10,2013-06-03 13:17:00,
2013-06-03 09:32:00,66.0,65.0,29.80,SE,141,0.0,0.0,96,0.01,,,0.07,weatherlink.com 1.10,2013-06-03 13:32:00,
2013-06-03 09:47:00,66.6,65.0,29.81,SE,135,0.0,0.0,95,0.00,,,0.07,weatherlink.com 1.10,2013-06-03 13:47:00,
2013-06-03 10:02:00,66.7,65.0,29.81,West,276,0.0,0.0,94,0.00,,,0.07,weatherlink.com 1.10,2013-06-03 14:02:00,
2013-06-03 10:17:00,66.8,65.0,29.80,SW,226,0.0,0.0,95,0.00,,,0.07,weatherlink.com 1.10,2013-06-03 14:17:00,
2013-06-03 10:32:00,67.1,65.0,29.80,South,172,0.0,0.0,94,0.00,,,0.07,weatherlink.com 1.10,2013-06-03 14:32:00,
2013-06-03 10:48:00,67.9,66.0,29.80,SSW,208,0.0,0.0,93,0.00,,,0.07,weatherlink.com 1.10,2013-06-03 14:48:00,
2013-06-03 11:03:00,68.4,65.0,29.80,South,180,0.0,0.0,90,0.00,,,0.07,weatherlink.com 1.10,2013-06-03 15:03:00,
2013-06-03 11:18:00,68.6,66.0,29.80,SSE,148,0.0,0.0,91,0.00,,,0.07,weatherlink.com 1.10,2013-06-03 15:18:00,
2013-06-03 11:33:00,69.6,67.0,29.79,SSE,148,0.0,0.0,90,0.00,,,0.07,weatherlink.com 1.10,2013-06-03 15:33:00,
2013-06-03 11:48:00,70.1,65.0,29.79,SE,143,0.0,0.0,85,0.00,,,0.07,weatherlink.com 1.10,2013-06-03 15:48:00,
2013-06-03 12:03:00,71.1,66.0,29.78,SSW,197,0.0,0.0,85,0.00,,,0.07,weatherlink.com 1.10,2013-06-03 16:03:00,
2013-06-03 12:18:00,72.7,66.0,29.78,SW,226,0.0,0.0,79,0.00,,,0.07,weatherlink.com 1.10,2013-06-03 16:18:00,
2013-06-03 12:33:00,72.4,66.0,29.78,SSW,210,0.0,0.0,79,0.00,,,0.07,weatherlink.com 1.10,2013-06-03 16:33:00,
2013-06-03 12:48:00,72.5,65.0,29.77,SW,226,0.0,0.0,77,0.00,,,0.07,weatherlink.com 1.10,2013-06-03 16:48:00,
2013-06-03 13:03:00,73.9,65.0,29.76,SSE,165,0.0,0.0,74,0.00,,,0.07,weatherlink.com 1.10,2013-06-03 17:03:00,
2013-06-03 13:18:00,76.3,64.0,29.76,SE,132,0.0,0.0,65,0.00,,,0.07,weatherlink.com 1.10,2013-06-03 17:18:00,
2013-06-03 13:33:00,77.4,65.0,29.76,East,99,0.0,0.0,66,0.00,,,0.07,weatherlink.com 1.10,2013-06-03 17:33:00,
2013-06-03 13:48:00,76.2,63.0,29.75,West,262,0.0,0.0,64,0.00,,,0.07,weatherlink.com 1.10,2013-06-03 17:48:00,
2013-06-03 14:03:00,77.1,63.0,29.75,SW,233,0.0,0.0,62,0.00,,,0.07,weatherlink.com 1.10,2013-06-03 18:03:00,
2013-06-03 14:18:00,77.9,61.0,29.74,East,96,0.0,0.0,57,0.00,,,0.07,weatherlink.com 1.10,2013-06-03 18:18:00,
2013-06-03 14:33:00,78.7,62.0,29.74,SE,138,0.0,0.0,56,0.00,,,0.07,weatherlink.com 1.10,2013-06-03 18:33:00,
2013-06-03 14:48:00,78.9,64.0,29.74,NNE,15,0.0,0.0,61,0.00,,,0.07,weatherlink.com 1.10,2013-06-03 18:48:00,
2013-06-03 15:03:00,79.2,59.0,29.73,SSW,198,0.0,0.0,51,0.00,,,0.07,weatherlink.com 1.10,2013-06-03 19:03:00,
2013-06-03 15:18:00,79.0,60.0,29.74,South,170,0.0,0.0,53,0.00,,,0.07,weatherlink.com 1.10,2013-06-03 19:18:00,
2013-06-03 15:33:00,78.7,61.0,29.74,North,359,0.0,0.0,54,0.00,,,0.07,weatherlink.com 1.10,2013-06-03 19:33:00,
2013-06-03 15:48:00,79.4,61.0,29.73,WSW,238,0.0,0.0,54,0.00,,,0.07,weatherlink.com 1.10,2013-06-03 19:48:00,
2013-06-03 16:03:00,78.8,59.0,29.73,SE,130,0.0,0.0,51,0.00,,,0.07,weatherlink.com 1.10,2013-06-03 20:03:00,
2013-06-03 16:18:00,77.4,59.0,29.73,East,96,0.0,0.0,53,0.00,,,0.07,weatherlink.com 1.10,2013-06-03 20:18:00,
2013-06-03 16:33:00,77.1,58.0,29.73,SE,128,0.0,0.0,52,0.00,,,0.07,weatherlink.com 1.10,2013-06-03 20:33:00,
2013-06-03 16:48:00,76.3,58.0,29.73,WSW,243,0.0,0.0,54,0.00,,,0.07,weatherlink.com 1.10,2013-06-03 20:48:00,
2013-06-03 17:03:00,75.8,56.0,29.73,East,87,0.0,0.0,50,0.00,,,0.07,weatherlink.com 1.10,2013-06-03 21:03:00,
2013-06-03 17:18:00,75.7,58.0,29.73,North,351,0.0,0.0,54,0.00,,,0.07,weatherlink.com 1.10,2013-06-03 21:18:00,
2013-06-03 17:33:00,75.3,54.0,29.74,SE,129,0.0,0.0,48,0.00,,,0.07,weatherlink.com 1.10,2013-06-03 21:33:00,
2013-06-03 17:48:00,74.7,54.0,29.73,SSE,148,0.0,0.0,48,0.00,,,0.07,weatherlink.com 1.10,2013-06-03 21:48:00,
2013-06-03 18:03:00,74.0,52.0,29.74,West,267,0.0,0.0,46,0.00,,,0.07,weatherlink.com 1.10,2013-06-03 22:03:00,
2013-06-03 18:18:00,73.3,52.0,29.74,SSW,194,0.0,0.0,48,0.00,,,0.07,weatherlink.com 1.10,2013-06-03 22:18:00,
2013-06-03 18:33:00,72.6,49.0,29.75,ESE,111,0.0,0.0,44,0.00,,,0.07,weatherlink.com 1.10,2013-06-03 22:33:00,
2013-06-03 18:48:00,71.7,54.0,29.75,West,262,0.0,0.0,54,0.00,,,0.07,weatherlink.com 1.10,2013-06-03 22:48:00,
2013-06-03 19:03:00,70.6,51.0,29.75,NNW,328,0.0,0.0,51,0.00,,,0.07,weatherlink.com 1.10,2013-06-03 23:03:00,
2013-06-03 19:18:00,69.2,49.0,29.75,SSW,207,0.0,0.0,49,0.00,,,0.07,weatherlink.com 1.10,2013-06-03 23:18:00,
2013-06-03 19:33:00,68.1,49.0,29.76,East,80,0.0,0.0,51,0.00,,,0.07,weatherlink.com 1.10,2013-06-03 23:33:00,
2013-06-03 19:48:00,66.9,50.0,29.76,SE,139,0.0,0.0,54,0.00,,,0.07,weatherlink.com 1.10,2013-06-03 23:48:00,
2013-06-03 20:03:00,65.4,50.0,29.77,SE,129,0.0,0.0,58,0.00,,,0.07,weatherlink.com 1.10,2013-06-04 00:03:00,
2013-06-03 20:19:00,65.0,49.0,29.77,SSE,154,0.0,0.0,57,0.00,,,0.07,weatherlink.com 1.10,2013-06-04 00:19:00,
2013-06-03 20:34:00,64.1,49.0,29.78,NNE,18,0.0,0.0,58,0.00,,,0.07,weatherlink.com 1.10,2013-06-04 00:34:00,
2013-06-03 20:49:00,63.3,49.0,29.79,NNE,26,0.0,0.0,59,0.00,,,0.07,weatherlink.com 1.10,2013-06-04 00:49:00,
2013-06-03 21:04:00,62.5,48.0,29.79,ESE,122,0.0,0.0,59,0.00,,,0.07,weatherlink.com 1.10,2013-06-04 01:04:00,
2013-06-03 21:19:00,61.7,47.0,29.79,ENE,72,0.0,0.0,58,0.00,,,0.07,weatherlink.com 1.10,2013-06-04 01:19:00,
2013-06-03 21:34:00,61.0,48.0,29.79,NNW,334,0.0,0.0,63,0.00,,,0.07,weatherlink.com 1.10,2013-06-04 01:34:00,
2013-06-03 21:49:00,60.2,47.0,29.79,NNW,335,0.0,0.0,62,0.00,,,0.07,weatherlink.com 1.10,2013-06-04 01:49:00,
2013-06-03 22:04:00,59.7,47.0,29.80,NNW,334,0.0,0.0,64,0.00,,,0.07,weatherlink.com 1.10,2013-06-04 02:04:00,
2013-06-03 22:19:00,59.1,47.0,29.80,NW,326,0.0,0.0,65,0.00,,,0.07,weatherlink.com 1.10,2013-06-04 02:19:00,
2013-06-03 22:34:00,58.5,48.0,29.81,NW,326,0.0,0.0,68,0.00,,,0.07,weatherlink.com 1.10,2013-06-04 02:34:00,
2013-06-03 22:49:00,58.0,47.0,29.81,NNW,336,0.0,0.0,68,0.00,,,0.07,weatherlink.com 1.10,2013-06-04 02:49:00,
2013-06-03 23:04:00,57.6,48.0,29.81,NNE,15,0.0,0.0,70,0.00,,,0.07,weatherlink.com 1.10,2013-06-04 03:04:00,
2013-06-03 23:19:00,57.4,48.0,29.81,SSW,193,0.0,0.0,70,0.00,,,0.07,weatherlink.com 1.10,2013-06-04 03:19:00,
2013-06-03 23:34:00,57.2,48.0,29.81,North,5,0.0,0.0,71,0.00,,,0.07,weatherlink.com 1.10,2013-06-04 03:34:00,
2013-06-03 23:49:00,57.1,48.0,29.82,NE,56,0.0,0.0,72,0.00,,,0.07,weatherlink.com 1.10,2013-06-04 03:49:00,